createdAt,value
2023-03-06T00:01:08.661Z,34.00
2023-03-06T00:03:36.357Z,35.10
2023-03-06T00:06:04.163Z,35.80
2023-03-06T00:08:31.807Z,35.30
2023-03-06T00:10:59.571Z,35.80
2023-03-06T00:13:30.069Z,39.10
2023-03-06T00:16:00.160Z,36.40
2023-03-06T00:18:27.758Z,36.90
2023-03-06T00:20:55.409Z,35.60
2023-03-06T00:23:23.022Z,33.80
2023-03-06T00:25:50.645Z,34.90
2023-03-06T00:28:18.250Z,35.00
2023-03-06T00:30:48.723Z,37.30
2023-03-06T00:33:16.347Z,43.90
2023-03-06T00:35:44.077Z,40.90
2023-03-06T00:38:14.385Z,35.20
2023-03-06T00:40:41.996Z,36.10
2023-03-06T00:43:09.928Z,36.70
2023-03-06T00:45:38.012Z,37.00
2023-03-06T00:48:05.990Z,35.30
2023-03-06T00:50:35.180Z,35.40
2023-03-06T00:53:03.323Z,36.70
2023-03-06T00:55:33.329Z,37.00
2023-03-06T00:58:01.015Z,38.90
2023-03-06T01:00:29.022Z,39.20
2023-03-06T01:02:56.839Z,38.20
2023-03-06T01:05:24.965Z,35.40
2023-03-06T01:07:53.005Z,35.50
2023-03-06T01:10:20.873Z,36.00
2023-03-06T01:12:49.176Z,36.50
2023-03-06T01:15:16.807Z,36.60
2023-03-06T01:17:44.944Z,39.80
2023-03-06T01:20:17.607Z,42.40
2023-03-06T01:22:45.897Z,38.00
2023-03-06T01:25:14.262Z,36.30
2023-03-06T01:27:42.044Z,37.20
2023-03-06T01:30:12.259Z,36.40
2023-03-06T01:32:40.043Z,37.30
2023-03-06T01:35:12.045Z,39.40
2023-03-06T01:37:40.218Z,41.40
2023-03-06T01:40:12.430Z,42.50
2023-03-06T01:42:40.450Z,43.20
2023-03-06T01:45:28.507Z,39.70
2023-03-06T01:47:56.097Z,40.20
2023-03-06T01:50:23.860Z,38.70
2023-03-06T01:52:55.797Z,37.20
2023-03-06T01:55:26.728Z,38.50
2023-03-06T01:57:57.847Z,38.70
2023-03-06T02:00:27.963Z,38.50
2023-03-06T02:03:14.863Z,42.10
2023-03-06T02:05:44.405Z,37.80
2023-03-06T02:08:16.539Z,38.00
2023-03-06T02:11:15.636Z,36.40
2023-03-06T02:13:44.610Z,35.20
2023-03-06T02:16:14.139Z,37.40
2023-03-06T02:18:43.142Z,36.70
2023-03-06T02:21:14.355Z,36.30
2023-03-06T02:23:54.618Z,36.90
2023-03-06T02:26:22.615Z,35.10
2023-03-06T02:28:50.305Z,35.00
2023-03-06T02:31:27.674Z,35.80
2023-03-06T02:34:27.761Z,36.20
2023-03-06T02:37:01.568Z,36.70
2023-03-06T02:39:31.581Z,36.10
2023-03-06T02:41:59.380Z,35.90
2023-03-06T02:44:28.775Z,37.70
2023-03-06T02:46:56.403Z,37.50
2023-03-06T02:49:26.379Z,37.70
2023-03-06T02:51:54.244Z,37.00
2023-03-06T02:54:21.910Z,36.60
2023-03-06T02:56:50.277Z,36.80
2023-03-06T02:59:18.222Z,38.70
2023-03-06T03:01:47.948Z,37.60
2023-03-06T03:04:16.385Z,40.10
2023-03-06T03:06:44.330Z,37.50
2023-03-06T03:09:12.407Z,38.90
2023-03-06T03:11:40.592Z,37.60
2023-03-06T03:14:08.295Z,37.50
2023-03-06T03:16:37.528Z,39.20
2023-03-06T03:19:06.735Z,37.70
2023-03-06T03:21:34.794Z,37.00
2023-03-06T03:24:02.510Z,36.30
2023-03-06T03:26:30.163Z,36.50
2023-03-06T03:29:05.212Z,33.10
2023-03-06T03:31:33.081Z,33.50
2023-03-06T03:34:01.658Z,31.80
2023-03-06T03:36:30.103Z,31.30
2023-03-06T03:38:58.620Z,30.00
2023-03-06T03:41:26.307Z,30.10
2023-03-06T03:43:53.982Z,28.70
2023-03-06T03:46:21.940Z,30.30
2023-03-06T03:48:50.525Z,28.90
2023-03-06T03:51:19.007Z,28.10
2023-03-06T03:53:49.390Z,28.70
2023-03-06T03:56:19.419Z,28.70
2023-03-06T03:58:54.555Z,29.80
2023-03-06T04:01:23.180Z,31.40
2023-03-06T04:03:51.286Z,34.50
2023-03-06T04:06:19.672Z,34.50
2023-03-06T04:08:47.807Z,35.60
2023-03-06T04:11:16.093Z,38.00
2023-03-06T04:13:44.367Z,38.10
2023-03-06T04:16:12.112Z,40.40
2023-03-06T04:18:40.819Z,39.20
2023-03-06T04:21:09.064Z,40.10
2023-03-06T04:23:37.723Z,37.60
2023-03-06T04:26:06.682Z,38.70
2023-03-06T04:28:34.576Z,39.20
2023-03-06T04:31:02.590Z,37.20
2023-03-06T04:33:31.080Z,36.00
2023-03-06T04:35:59.482Z,38.30
2023-03-06T04:38:29.430Z,36.70
2023-03-06T04:40:57.076Z,36.60
2023-03-06T04:43:24.731Z,38.70
2023-03-06T04:45:52.386Z,39.10
2023-03-06T04:48:20.148Z,37.90
2023-03-06T04:50:47.839Z,36.10
2023-03-06T04:53:16.845Z,35.10
2023-03-06T04:55:44.566Z,34.80
2023-03-06T04:58:12.284Z,35.70
2023-03-06T05:00:39.988Z,36.40
2023-03-06T05:03:08.805Z,40.20
2023-03-06T05:05:36.430Z,41.80
2023-03-06T05:08:04.310Z,44.70
2023-03-06T05:10:31.967Z,50.50
2023-03-06T05:12:59.619Z,48.40
2023-03-06T05:15:27.237Z,48.10
2023-03-06T05:17:56.476Z,46.60
2023-03-06T05:20:24.336Z,50.20
2023-03-06T05:22:51.984Z,48.50
2023-03-06T05:25:19.623Z,49.70
2023-03-06T05:27:47.563Z,47.70
2023-03-06T05:30:15.424Z,47.80
2023-03-06T05:32:43.278Z,48.70
2023-03-06T05:35:20.694Z,49.50
2023-03-06T05:37:48.838Z,52.60
2023-03-06T05:40:16.726Z,52.70
2023-03-06T05:42:44.925Z,56.90
2023-03-06T05:45:12.614Z,56.70
2023-03-06T05:47:40.295Z,51.60
2023-03-06T05:50:10.412Z,62.10
2023-03-06T05:52:39.577Z,55.90
2023-03-06T05:55:08.080Z,59.20
2023-03-06T05:57:35.686Z,55.90
2023-03-06T06:00:04.013Z,56.80
2023-03-06T06:02:41.579Z,53.40
2023-03-06T06:05:12.556Z,57.10
2023-03-06T06:07:41.327Z,51.10
2023-03-06T06:10:09.710Z,52.00
2023-03-06T06:12:37.438Z,50.80
2023-03-06T06:15:06.630Z,51.90
2023-03-06T06:17:34.538Z,52.90
2023-03-06T06:20:02.345Z,53.30
2023-03-06T06:22:29.977Z,50.80
2023-03-06T06:24:57.848Z,50.30
2023-03-06T06:27:25.428Z,48.80
2023-03-06T06:29:53.032Z,50.90
2023-03-06T06:32:20.689Z,48.70
2023-03-06T06:34:48.345Z,49.00
2023-03-06T06:37:16.692Z,49.20
2023-03-06T06:39:44.284Z,45.90
2023-03-06T06:42:30.274Z,46.60
2023-03-06T06:44:59.694Z,47.70
2023-03-06T06:47:27.316Z,44.90
2023-03-06T06:49:56.178Z,47.00
2023-03-06T06:52:24.846Z,45.50
2023-03-06T06:54:52.920Z,48.30
2023-03-06T06:57:20.667Z,44.60
2023-03-06T06:59:48.300Z,46.90
2023-03-06T07:02:16.427Z,42.60
2023-03-06T07:05:00.636Z,46.10
2023-03-06T07:07:32.958Z,45.00
2023-03-06T07:10:00.695Z,44.60
2023-03-06T07:12:28.406Z,44.20
2023-03-06T07:14:56.055Z,46.60
2023-03-06T07:17:23.638Z,44.40
2023-03-06T07:19:51.426Z,43.30
2023-03-06T07:22:19.024Z,43.10
2023-03-06T07:24:46.751Z,43.50
2023-03-06T07:27:14.345Z,44.40
2023-03-06T07:29:44.733Z,43.50
2023-03-06T07:32:12.530Z,43.30
2023-03-06T07:34:40.232Z,43.80
2023-03-06T07:37:07.869Z,42.40
2023-03-06T07:39:35.780Z,41.60
2023-03-06T07:42:04.179Z,41.50
2023-03-06T07:44:36.524Z,39.90
2023-03-06T07:47:05.308Z,38.70
2023-03-06T07:49:34.243Z,40.00
2023-03-06T07:52:02.012Z,35.70
2023-03-06T07:54:30.775Z,34.80
2023-03-06T07:56:58.634Z,34.40
2023-03-06T07:59:26.299Z,32.50
2023-03-06T08:01:55.467Z,33.00
2023-03-06T08:04:23.222Z,33.20
2023-03-06T08:06:50.822Z,32.70
2023-03-06T08:09:18.433Z,33.00
2023-03-06T08:11:46.090Z,34.00
2023-03-06T08:14:13.749Z,31.00
2023-03-06T08:16:41.439Z,25.80
2023-03-06T08:19:09.392Z,24.30
2023-03-06T08:21:37.047Z,24.20
2023-03-06T08:24:06.287Z,23.40
2023-03-06T08:26:34.718Z,25.60
2023-03-06T08:29:03.273Z,25.10
2023-03-06T08:31:32.273Z,26.50
2023-03-06T08:34:02.314Z,28.50
2023-03-06T08:36:30.030Z,29.80
2023-03-06T08:38:58.173Z,29.80
2023-03-06T08:41:25.931Z,29.90
2023-03-06T08:43:53.547Z,29.40
2023-03-06T08:46:23.299Z,29.50
2023-03-06T08:48:51.059Z,29.80
2023-03-06T08:51:19.485Z,26.70
2023-03-06T08:53:47.128Z,28.60
2023-03-06T08:56:20.146Z,27.40
2023-03-06T08:58:48.678Z,27.70
2023-03-06T09:01:21.685Z,26.70
2023-03-06T09:03:49.781Z,28.10
2023-03-06T09:06:17.721Z,27.30
2023-03-06T09:08:45.340Z,26.80
2023-03-06T09:11:15.031Z,24.50
2023-03-06T09:13:43.058Z,24.50
2023-03-06T09:16:11.458Z,24.50
2023-03-06T09:18:39.366Z,23.80
2023-03-06T09:21:08.015Z,23.90
2023-03-06T09:23:37.115Z,23.90
2023-03-06T09:26:05.641Z,25.30
2023-03-06T09:28:36.016Z,25.50
2023-03-06T09:31:25.609Z,27.00
2023-03-06T09:33:53.199Z,26.50
2023-03-06T09:36:22.105Z,26.60
2023-03-06T09:38:50.571Z,25.50
2023-03-06T09:41:36.057Z,26.90
2023-03-06T09:44:20.232Z,27.90
2023-03-06T09:47:01.069Z,28.80
2023-03-06T09:50:06.066Z,28.60
2023-03-06T09:52:45.957Z,28.50
2023-03-06T09:55:18.098Z,28.60
2023-03-06T09:57:55.893Z,30.00
2023-03-06T10:00:32.112Z,29.80
2023-03-06T10:03:14.165Z,29.00
2023-03-06T10:05:46.509Z,28.30
2023-03-06T10:08:21.669Z,29.80
2023-03-06T10:11:26.367Z,28.20
2023-03-06T10:14:10.039Z,30.40
2023-03-06T10:16:37.732Z,29.10
2023-03-06T10:19:12.817Z,29.00
2023-03-06T10:21:46.574Z,29.90
2023-03-06T10:24:30.644Z,29.10
2023-03-06T10:27:16.627Z,31.00
2023-03-06T10:30:02.267Z,31.30
2023-03-06T10:32:55.245Z,33.10
2023-03-06T10:35:30.376Z,36.40
2023-03-06T10:38:01.647Z,36.60
2023-03-06T10:40:36.199Z,36.10
2023-03-06T10:43:12.104Z,39.00
2023-03-06T10:45:49.776Z,41.80
2023-03-06T10:48:20.689Z,40.70
2023-03-06T10:50:48.508Z,38.80
2023-03-06T10:53:24.070Z,36.70
2023-03-06T10:55:59.317Z,36.30
2023-03-06T10:58:29.997Z,38.00
2023-03-06T11:01:07.231Z,49.60
2023-03-06T11:03:36.594Z,37.80
2023-03-06T11:06:13.385Z,38.10
2023-03-06T11:08:43.517Z,38.30
2023-03-06T11:11:14.478Z,35.60
2023-03-06T11:13:44.071Z,34.50
2023-03-06T11:16:30.646Z,27.50
2023-03-06T11:19:01.213Z,26.40
2023-03-06T11:21:32.890Z,26.00
2023-03-06T11:24:04.102Z,26.20
2023-03-06T11:26:54.999Z,25.80
2023-03-06T11:29:34.571Z,26.50
2023-03-06T11:32:09.378Z,32.10
2023-03-06T11:34:51.263Z,28.30
2023-03-06T11:37:30.833Z,24.90
2023-03-06T11:40:07.975Z,27.60
2023-03-06T11:42:54.266Z,26.20
2023-03-06T11:45:43.641Z,26.10
2023-03-06T11:48:19.306Z,24.80
2023-03-06T11:50:57.590Z,27.50
2023-03-06T11:53:33.342Z,28.30
2023-03-06T11:56:19.572Z,27.30
2023-03-06T11:59:21.425Z,27.70
2023-03-06T12:01:54.772Z,26.50
2023-03-06T12:04:40.035Z,25.00
2023-03-06T12:07:55.912Z,25.20
2023-03-06T12:10:33.696Z,24.40
2023-03-06T12:13:58.333Z,25.20
2023-03-06T12:16:35.063Z,26.90
2023-03-06T12:19:28.392Z,24.10
2023-03-06T12:22:22.188Z,24.50
2023-03-06T12:25:20.507Z,25.60
2023-03-06T12:27:57.031Z,27.10
2023-03-06T12:30:58.612Z,30.70
2023-03-06T12:33:49.444Z,30.70
2023-03-06T12:36:33.652Z,30.40
2023-03-06T12:39:46.676Z,28.50
2023-03-06T12:42:40.109Z,28.50
2023-03-06T12:45:22.502Z,27.00
2023-03-06T12:47:55.561Z,28.10
2023-03-06T12:50:31.103Z,28.60
2023-03-06T12:53:02.087Z,27.20
2023-03-06T12:55:39.112Z,27.00
2023-03-06T12:58:31.786Z,23.60
2023-03-06T13:01:30.444Z,25.10
2023-03-06T13:04:17.093Z,24.20
2023-03-06T13:07:08.081Z,22.90
2023-03-06T13:10:10.340Z,23.20
2023-03-06T13:12:49.857Z,24.30
2023-03-06T13:15:29.397Z,24.50
2023-03-06T13:17:57.527Z,24.60
2023-03-06T13:20:29.565Z,26.10
2023-03-06T13:22:58.497Z,25.60
2023-03-06T13:25:26.118Z,26.10
2023-03-06T13:27:53.948Z,25.90
2023-03-06T13:30:36.786Z,28.80
2023-03-06T13:33:26.689Z,26.80
2023-03-06T13:35:56.713Z,27.10
2023-03-06T13:38:34.560Z,27.10
2023-03-06T13:41:20.381Z,25.50
2023-03-06T13:43:52.968Z,27.20
2023-03-06T13:46:24.933Z,23.40
2023-03-06T13:49:08.158Z,29.70
2023-03-06T13:51:43.870Z,26.90
2023-03-06T13:54:42.439Z,23.90
2023-03-06T13:57:47.685Z,25.60
2023-03-06T14:00:25.834Z,24.10
2023-03-06T14:03:04.936Z,24.30
2023-03-06T14:05:46.520Z,25.20
2023-03-06T14:08:23.972Z,24.30
2023-03-06T14:11:05.834Z,24.60
2023-03-06T14:13:46.608Z,26.70
2023-03-06T14:16:21.180Z,28.50
2023-03-06T14:18:51.632Z,31.00
2023-03-06T14:21:37.474Z,32.70
2023-03-06T14:24:05.715Z,36.90
2023-03-06T14:26:40.350Z,40.00
2023-03-06T14:29:20.282Z,39.90
2023-03-06T14:31:53.127Z,42.00
2023-03-06T14:34:23.038Z,33.80
2023-03-06T14:36:53.028Z,34.50
2023-03-06T14:39:23.887Z,36.20
2023-03-06T14:41:51.531Z,34.50
2023-03-06T14:44:21.770Z,36.80
2023-03-06T14:46:51.668Z,34.60
2023-03-06T14:49:20.803Z,36.30
2023-03-06T14:51:56.362Z,36.40
2023-03-06T14:54:50.352Z,34.90
2023-03-06T14:57:20.051Z,37.70
2023-03-06T14:59:56.372Z,34.90
2023-03-06T15:02:28.266Z,37.70
2023-03-06T15:05:03.204Z,45.30
2023-03-06T15:07:32.541Z,38.30
2023-03-06T15:10:00.776Z,35.20
2023-03-06T15:12:31.047Z,33.40
2023-03-06T15:15:02.759Z,32.00
2023-03-06T15:17:41.577Z,35.60
2023-03-06T15:20:46.939Z,38.10
2023-03-06T15:23:22.290Z,35.30
2023-03-06T15:25:58.099Z,72.70
2023-03-06T15:28:40.027Z,63.20
2023-03-06T15:31:22.008Z,35.20
2023-03-06T15:34:04.089Z,35.80
2023-03-06T15:36:55.193Z,40.50
2023-03-06T15:39:39.255Z,38.40
2023-03-06T15:42:18.289Z,39.20
2023-03-06T15:44:52.861Z,43.90
2023-03-06T15:47:21.442Z,41.30
2023-03-06T15:49:52.105Z,41.30
2023-03-06T15:52:23.221Z,41.80
2023-03-06T15:54:50.900Z,49.10
2023-03-06T15:57:29.168Z,50.60
2023-03-06T15:59:58.369Z,46.60
2023-03-06T16:02:26.110Z,35.60
2023-03-06T16:04:53.917Z,28.40
2023-03-06T16:07:21.632Z,27.10
2023-03-06T16:09:49.256Z,27.10
2023-03-06T16:12:18.849Z,26.50
2023-03-06T16:14:47.649Z,27.90
2023-03-06T16:17:16.229Z,27.00
2023-03-06T16:19:43.893Z,28.20
2023-03-06T16:22:11.846Z,29.80
2023-03-06T16:24:39.648Z,42.50
2023-03-06T16:27:07.274Z,35.90
2023-03-06T16:29:35.183Z,32.20
2023-03-06T16:32:04.412Z,33.30
2023-03-06T16:34:32.075Z,33.40
2023-03-06T16:36:59.678Z,32.30
2023-03-06T16:39:27.271Z,36.90
2023-03-06T16:41:55.251Z,35.60
2023-03-06T16:44:22.864Z,36.40
2023-03-06T16:46:50.544Z,35.40
2023-03-06T16:49:20.642Z,38.50
2023-03-06T16:51:49.320Z,37.10
2023-03-06T16:54:17.336Z,37.20
2023-03-06T16:56:45.332Z,37.80
2023-03-06T16:59:13.263Z,40.10
2023-03-06T17:01:43.253Z,42.60
2023-03-06T17:04:11.491Z,39.10
2023-03-06T17:06:39.821Z,40.80
2023-03-06T17:09:07.468Z,45.00
2023-03-06T17:11:38.582Z,39.10
2023-03-06T17:14:07.019Z,43.40
2023-03-06T17:16:37.202Z,40.90
2023-03-06T17:19:04.853Z,44.40
2023-03-06T17:21:35.307Z,47.50
2023-03-06T17:24:03.828Z,46.10
2023-03-06T17:26:31.602Z,52.80
2023-03-06T17:28:59.225Z,49.00
2023-03-06T17:31:27.672Z,48.50
2023-03-06T17:34:00.487Z,55.20
2023-03-06T17:36:29.905Z,55.80
2023-03-06T17:38:58.691Z,56.50
2023-03-06T17:41:27.070Z,61.30
2023-03-06T17:43:55.968Z,59.50
2023-03-06T17:46:23.988Z,53.10
2023-03-06T17:48:51.834Z,50.30
2023-03-06T17:51:19.473Z,49.40
2023-03-06T17:53:47.081Z,47.50
2023-03-06T17:56:15.478Z,47.50
2023-03-06T17:58:43.080Z,47.70
2023-03-06T18:01:13.173Z,46.60
2023-03-06T18:03:44.359Z,47.40
2023-03-06T18:06:12.175Z,49.70
2023-03-06T18:08:41.057Z,62.90
2023-03-06T18:11:10.404Z,66.00
2023-03-06T18:13:40.429Z,63.00
2023-03-06T18:16:10.495Z,49.20
2023-03-06T18:18:38.476Z,49.60
2023-03-06T18:21:08.968Z,49.10
2023-03-06T18:23:38.253Z,54.10
2023-03-06T18:26:13.678Z,52.60
2023-03-06T18:28:44.478Z,53.20
2023-03-06T18:31:24.602Z,51.40
2023-03-06T18:33:54.079Z,52.70
2023-03-06T18:36:23.887Z,53.70
2023-03-06T18:38:52.317Z,55.60
2023-03-06T18:41:21.516Z,53.70
2023-03-06T18:43:53.462Z,65.50
2023-03-06T18:46:21.654Z,52.00
2023-03-06T18:48:49.301Z,61.90
2023-03-06T18:51:17.854Z,61.90
2023-03-06T18:53:45.958Z,54.30
2023-03-06T18:56:19.855Z,59.50
2023-03-06T18:58:48.816Z,62.80
2023-03-06T19:01:17.537Z,56.70
2023-03-06T19:03:45.727Z,60.00
2023-03-06T19:06:16.821Z,59.80
2023-03-06T19:08:45.061Z,58.70
2023-03-06T19:11:15.161Z,81.50
2023-03-06T19:13:43.644Z,68.30
2023-03-06T19:16:22.571Z,91.50
2023-03-06T19:18:50.904Z,58.20
2023-03-06T19:21:20.251Z,60.30
2023-03-06T19:23:48.143Z,54.50
2023-03-06T19:26:18.642Z,56.80
2023-03-06T19:28:47.704Z,48.50
2023-03-06T19:31:20.812Z,51.30
2023-03-06T19:33:49.603Z,50.40
2023-03-06T19:36:20.204Z,50.50
2023-03-06T19:38:52.516Z,45.50
2023-03-06T19:41:20.108Z,43.90
2023-03-06T19:43:52.056Z,40.20
2023-03-06T19:46:21.355Z,42.70
2023-03-06T19:48:54.399Z,44.20
2023-03-06T19:51:22.124Z,44.50
2023-03-06T19:53:49.727Z,41.70
2023-03-06T19:56:22.574Z,40.60
2023-03-06T19:58:50.964Z,46.40
2023-03-06T20:01:20.245Z,43.40
2023-03-06T20:03:49.368Z,42.20
2023-03-06T20:06:19.464Z,40.80
2023-03-06T20:08:47.813Z,44.20
2023-03-06T20:11:16.892Z,39.40
2023-03-06T20:13:47.468Z,49.20
2023-03-06T20:16:16.920Z,43.00
2023-03-06T20:18:45.472Z,40.60
2023-03-06T20:21:13.708Z,42.80
2023-03-06T20:23:41.864Z,31.10
2023-03-06T20:26:12.254Z,30.40
2023-03-06T20:28:41.186Z,29.80
2023-03-06T20:31:18.167Z,31.80
2023-03-06T20:33:47.522Z,32.40
2023-03-06T20:36:18.094Z,33.60
2023-03-06T20:38:47.152Z,35.50
2023-03-06T20:41:16.439Z,29.50
2023-03-06T20:43:44.477Z,29.30
2023-03-06T20:46:13.019Z,30.00
2023-03-06T20:48:41.579Z,25.90
2023-03-06T20:51:16.175Z,28.40
2023-03-06T20:53:44.013Z,30.20
2023-03-06T20:56:15.961Z,24.20
2023-03-06T20:58:44.341Z,24.50
2023-03-06T21:01:21.429Z,28.60
2023-03-06T21:03:49.372Z,27.30
2023-03-06T21:06:17.869Z,25.60
2023-03-06T21:08:45.527Z,25.80
2023-03-06T21:11:13.333Z,26.20
2023-03-06T21:13:40.927Z,27.60
2023-03-06T21:16:11.629Z,28.20
2023-03-06T21:18:40.019Z,28.80
2023-03-06T21:21:09.466Z,29.30
2023-03-06T21:23:37.939Z,31.60
2023-03-06T21:26:05.647Z,29.60
2023-03-06T21:28:33.323Z,27.10
2023-03-06T21:31:01.893Z,27.20
2023-03-06T21:33:29.721Z,22.10
2023-03-06T21:35:57.341Z,18.30
2023-03-06T21:38:25.145Z,20.60
2023-03-06T21:40:52.768Z,18.90
2023-03-06T21:43:20.367Z,23.30
2023-03-06T21:45:48.852Z,19.70
2023-03-06T21:48:16.543Z,20.30
2023-03-06T21:50:44.146Z,17.40
2023-03-06T21:53:11.969Z,17.90
2023-03-06T21:55:40.856Z,18.50
2023-03-06T21:58:08.802Z,18.30
2023-03-06T22:00:36.759Z,16.50
2023-03-06T22:03:04.791Z,17.90
2023-03-06T22:05:32.646Z,22.30
2023-03-06T22:08:00.316Z,27.20
2023-03-06T22:10:28.158Z,22.70
2023-03-06T22:12:55.754Z,17.80
2023-03-06T22:15:23.443Z,19.30
2023-03-06T22:17:51.231Z,19.30
2023-03-06T22:20:18.967Z,19.10
2023-03-06T22:22:46.600Z,21.70
2023-03-06T22:25:14.835Z,28.20
2023-03-06T22:27:42.420Z,27.60
2023-03-06T22:30:10.812Z,25.30
2023-03-06T22:32:38.504Z,25.00
2023-03-06T22:35:06.699Z,26.40
2023-03-06T22:37:34.296Z,26.90
2023-03-06T22:40:01.957Z,31.10
2023-03-06T22:42:29.600Z,34.40
2023-03-06T22:44:57.171Z,38.70
2023-03-06T22:47:24.753Z,35.10
2023-03-06T22:49:52.380Z,33.10
2023-03-06T22:52:20.024Z,32.20
2023-03-06T22:54:47.608Z,31.10
2023-03-06T22:57:15.191Z,31.80
2023-03-06T22:59:42.800Z,30.60
2023-03-06T23:02:10.394Z,29.70
2023-03-06T23:04:38.749Z,28.50
2023-03-06T23:07:06.379Z,30.60
2023-03-06T23:09:34.004Z,30.10
2023-03-06T23:12:20.522Z,32.90
2023-03-06T23:15:08.208Z,32.70
2023-03-06T23:17:54.442Z,33.10
2023-03-06T23:20:44.013Z,35.00
2023-03-06T23:23:30.346Z,35.00
2023-03-06T23:26:01.184Z,32.80
2023-03-06T23:28:28.906Z,33.80
2023-03-06T23:30:56.582Z,33.60
2023-03-06T23:33:24.544Z,34.80
2023-03-06T23:35:52.227Z,34.00
2023-03-06T23:38:19.902Z,35.10
2023-03-06T23:40:47.554Z,34.70
2023-03-06T23:43:15.158Z,32.50
2023-03-06T23:45:52.198Z,33.40
2023-03-06T23:48:19.860Z,32.50
2023-03-06T23:50:47.496Z,31.20
2023-03-06T23:53:15.671Z,32.80
2023-03-06T23:55:45.020Z,31.10
2023-03-06T23:58:13.589Z,31.80
